createdAt,value
2023-05-05T00:00:58.869Z,15.59
2023-05-05T00:03:25.812Z,15.61
2023-05-05T00:05:57.402Z,15.63
2023-05-05T00:08:23.814Z,15.71
2023-05-05T00:10:52.372Z,15.43
2023-05-05T00:13:20.317Z,15.42
2023-05-05T00:15:48.828Z,15.22
2023-05-05T00:18:16.670Z,15.13
2023-05-05T00:20:47.160Z,14.99
2023-05-05T00:23:14.633Z,15.07
2023-05-05T00:25:41.258Z,15.12
2023-05-05T00:28:07.956Z,15.17
2023-05-05T00:30:34.633Z,15.19
2023-05-05T00:33:01.493Z,15.07
2023-05-05T00:35:27.909Z,14.94
2023-05-05T00:37:55.132Z,15.09
2023-05-05T00:40:21.731Z,15.14
2023-05-05T00:42:52.182Z,15.26
2023-05-05T00:45:19.921Z,15.39
2023-05-05T00:47:54.103Z,15.43
2023-05-05T00:50:26.127Z,15.45
2023-05-05T00:52:55.303Z,15.40
2023-05-05T00:55:22.000Z,15.44
2023-05-05T00:57:49.419Z,15.42
2023-05-05T01:00:16.730Z,15.37
2023-05-05T01:02:44.234Z,15.37
2023-05-05T01:05:11.596Z,15.25
2023-05-05T01:07:43.655Z,15.26
2023-05-05T01:10:30.680Z,15.30
2023-05-05T01:13:29.466Z,15.27
2023-05-05T01:16:04.323Z,15.27
2023-05-05T01:18:33.692Z,15.31
2023-05-05T01:21:18.283Z,15.34
2023-05-05T01:24:00.489Z,15.41
2023-05-05T01:26:59.096Z,15.57
2023-05-05T01:30:02.270Z,15.67
2023-05-05T01:32:34.502Z,15.73
2023-05-05T01:35:13.421Z,15.84
2023-05-05T01:37:46.366Z,15.94
2023-05-05T01:40:15.294Z,15.96
2023-05-05T01:42:44.351Z,16.01
2023-05-05T01:45:12.734Z,16.01
2023-05-05T01:47:42.535Z,15.96
2023-05-05T01:50:11.374Z,15.97
2023-05-05T01:52:39.823Z,16.03
2023-05-05T01:55:08.396Z,16.04
2023-05-05T01:57:36.764Z,16.10
2023-05-05T02:00:04.487Z,16.19
2023-05-05T02:02:32.920Z,16.17
2023-05-05T02:05:01.127Z,16.14
2023-05-05T02:07:28.166Z,16.15
2023-05-05T02:09:55.659Z,16.15
2023-05-05T02:12:23.034Z,16.14
2023-05-05T02:14:51.090Z,16.07
2023-05-05T02:17:20.142Z,16.02
2023-05-05T02:19:49.593Z,16.03
2023-05-05T02:22:16.820Z,16.02
2023-05-05T02:24:43.790Z,16.01
2023-05-05T02:27:11.635Z,15.88
2023-05-05T02:29:45.010Z,15.79
2023-05-05T02:32:20.325Z,15.74
2023-05-05T02:34:49.554Z,15.64
2023-05-05T02:37:25.484Z,15.58
2023-05-05T02:39:59.066Z,15.50
2023-05-05T02:42:32.108Z,15.39
2023-05-05T02:45:01.812Z,15.30
2023-05-05T02:47:35.233Z,15.26
2023-05-05T02:50:01.823Z,15.20
2023-05-05T02:52:28.313Z,15.17
2023-05-05T02:54:54.713Z,15.11
2023-05-05T02:57:31.411Z,15.03
2023-05-05T03:00:06.774Z,14.94
2023-05-05T03:02:46.008Z,14.90
2023-05-05T03:05:22.364Z,14.85
2023-05-05T03:07:56.123Z,14.80
2023-05-05T03:10:28.944Z,14.76
2023-05-05T03:13:00.257Z,14.77
2023-05-05T03:15:41.437Z,14.74
2023-05-05T03:18:10.547Z,14.68
2023-05-05T03:20:39.770Z,14.63
2023-05-05T03:23:06.603Z,14.66
2023-05-05T03:25:46.650Z,14.66
2023-05-05T03:28:14.185Z,14.63
2023-05-05T03:30:41.246Z,14.55
2023-05-05T03:33:11.936Z,14.50
2023-05-05T03:35:38.337Z,14.47
2023-05-05T03:38:04.707Z,14.53
2023-05-05T03:40:43.036Z,14.53
2023-05-05T03:43:10.653Z,14.49
2023-05-05T03:45:37.086Z,14.44
2023-05-05T03:48:03.652Z,14.40
2023-05-05T03:50:30.116Z,14.37
2023-05-05T03:52:56.503Z,14.32
2023-05-05T03:55:22.947Z,14.27
2023-05-05T03:57:49.272Z,14.25
2023-05-05T04:00:16.029Z,14.21
2023-05-05T04:02:43.537Z,14.17
2023-05-05T04:05:10.137Z,14.17
2023-05-05T04:07:36.496Z,14.14
2023-05-05T04:10:03.059Z,14.08
2023-05-05T04:12:29.428Z,14.02
2023-05-05T04:14:55.888Z,14.00
2023-05-05T04:17:22.296Z,14.03
2023-05-05T04:19:48.748Z,14.01
2023-05-05T04:22:15.072Z,14.04
2023-05-05T04:24:41.473Z,14.00
2023-05-05T04:27:07.828Z,13.95
2023-05-05T04:29:34.256Z,13.93
2023-05-05T04:32:01.101Z,13.92
2023-05-05T04:34:27.537Z,13.92
2023-05-05T04:36:53.904Z,13.88
2023-05-05T04:39:20.293Z,13.88
2023-05-05T04:41:46.852Z,13.88
2023-05-05T04:44:13.232Z,13.84
2023-05-05T04:46:39.880Z,13.90
2023-05-05T04:49:06.345Z,13.87
2023-05-05T04:51:32.770Z,13.88
2023-05-05T04:53:59.214Z,13.93
2023-05-05T04:56:25.716Z,13.99
2023-05-05T04:58:52.076Z,13.97
2023-05-05T05:01:18.458Z,14.04
2023-05-05T05:03:44.963Z,14.01
2023-05-05T05:06:11.356Z,14.05
2023-05-05T05:08:37.691Z,14.11
2023-05-05T05:11:04.106Z,14.11
2023-05-05T05:13:30.582Z,14.12
2023-05-05T05:15:56.974Z,14.14
2023-05-05T05:18:23.383Z,14.15
2023-05-05T05:20:49.830Z,14.17
2023-05-05T05:23:16.216Z,14.21
2023-05-05T05:25:43.376Z,14.27
2023-05-05T05:28:10.958Z,14.28
2023-05-05T05:30:37.456Z,14.33
2023-05-05T05:33:03.935Z,14.39
2023-05-05T05:35:31.424Z,14.49
2023-05-05T05:37:57.848Z,14.53
2023-05-05T05:40:24.262Z,14.59
2023-05-05T05:42:50.730Z,14.65
2023-05-05T05:45:17.181Z,14.69
2023-05-05T05:47:43.649Z,14.74
2023-05-05T05:50:10.884Z,14.79
2023-05-05T05:52:37.432Z,14.86
2023-05-05T05:55:04.159Z,14.91
2023-05-05T05:57:30.504Z,15.01
2023-05-05T05:59:59.209Z,15.04
2023-05-05T06:02:27.245Z,15.06
2023-05-05T06:04:53.732Z,15.12
2023-05-05T06:07:20.139Z,15.17
2023-05-05T06:09:46.579Z,15.24
2023-05-05T06:12:13.017Z,15.32
2023-05-05T06:14:39.356Z,15.37
2023-05-05T06:17:05.759Z,15.49
2023-05-05T06:19:32.125Z,15.53
2023-05-05T06:21:58.549Z,15.63
2023-05-05T06:24:24.948Z,15.70
2023-05-05T06:26:51.356Z,15.76
2023-05-05T06:29:17.702Z,15.83
2023-05-05T06:31:44.130Z,15.92
2023-05-05T06:34:10.878Z,16.01
2023-05-05T06:36:37.291Z,16.03
2023-05-05T06:39:03.879Z,16.09
2023-05-05T06:41:30.343Z,16.10
2023-05-05T06:43:56.755Z,16.17
2023-05-05T06:46:23.239Z,16.28
2023-05-05T06:48:49.684Z,16.37
2023-05-05T06:51:16.143Z,16.43
2023-05-05T06:53:42.643Z,16.50
2023-05-05T06:56:08.996Z,16.53
2023-05-05T06:58:35.295Z,16.61
2023-05-05T07:01:01.688Z,16.66
2023-05-05T07:03:28.356Z,16.73
2023-05-05T07:05:54.900Z,16.79
2023-05-05T07:08:21.308Z,16.81
2023-05-05T07:10:47.765Z,16.90
2023-05-05T07:13:15.583Z,17.04
2023-05-05T07:15:46.264Z,17.04
2023-05-05T07:18:15.016Z,17.06
2023-05-05T07:20:41.484Z,17.10
2023-05-05T07:23:07.915Z,17.03
2023-05-05T07:25:34.330Z,16.94
2023-05-05T07:28:00.980Z,16.91
2023-05-05T07:30:27.380Z,16.90
2023-05-05T07:32:54.824Z,17.04
2023-05-05T07:35:21.529Z,17.18
2023-05-05T07:37:47.938Z,17.27
2023-05-05T07:40:14.360Z,17.37
2023-05-05T07:42:40.954Z,17.48
2023-05-05T07:45:07.850Z,17.59
2023-05-05T07:47:34.273Z,17.66
2023-05-05T07:50:00.833Z,17.69
2023-05-05T07:52:43.675Z,17.59
2023-05-05T07:55:12.859Z,17.65
2023-05-05T07:57:39.694Z,17.65
2023-05-05T08:00:06.930Z,17.77
2023-05-05T08:02:33.526Z,17.83
2023-05-05T08:04:59.973Z,17.99
2023-05-05T08:07:26.346Z,18.07
2023-05-05T08:09:52.752Z,18.13
2023-05-05T08:12:19.541Z,18.24
2023-05-05T08:14:45.952Z,18.40
2023-05-05T08:17:12.443Z,18.54
2023-05-05T08:19:38.915Z,18.64
2023-05-05T08:22:05.267Z,18.82
2023-05-05T08:24:31.699Z,18.89
2023-05-05T08:26:58.041Z,18.97
2023-05-05T08:29:24.402Z,19.03
2023-05-05T08:31:51.075Z,19.17
2023-05-05T08:34:17.448Z,19.42
2023-05-05T08:36:43.868Z,19.41
2023-05-05T08:39:10.209Z,19.27
2023-05-05T08:41:36.575Z,19.16
2023-05-05T08:44:02.952Z,19.06
2023-05-05T08:46:30.992Z,19.11
2023-05-05T08:48:57.969Z,19.14
2023-05-05T08:51:28.497Z,19.14
2023-05-05T08:53:54.786Z,19.20
2023-05-05T08:56:21.983Z,19.23
2023-05-05T08:58:49.418Z,19.16
2023-05-05T09:01:17.121Z,19.10
2023-05-05T09:03:45.038Z,19.02
2023-05-05T09:06:11.715Z,18.99
2023-05-05T09:08:39.084Z,18.98
2023-05-05T09:11:06.049Z,19.00
2023-05-05T09:13:32.665Z,19.00
2023-05-05T09:15:59.591Z,18.97
2023-05-05T09:18:26.697Z,18.94
2023-05-05T09:20:53.198Z,19.02
2023-05-05T09:23:20.627Z,19.19
2023-05-05T09:26:02.595Z,19.28
2023-05-05T09:28:29.298Z,19.31
2023-05-05T09:30:55.870Z,19.29
2023-05-05T09:33:31.551Z,19.23
2023-05-05T09:35:58.435Z,19.07
2023-05-05T09:38:25.085Z,18.97
2023-05-05T09:40:54.348Z,18.90
2023-05-05T09:43:23.439Z,18.87
2023-05-05T09:45:50.705Z,18.84
2023-05-05T09:48:30.812Z,18.84
2023-05-05T09:50:58.488Z,18.90
2023-05-05T09:53:26.417Z,18.98
2023-05-05T09:56:01.539Z,19.10
2023-05-05T09:58:30.126Z,19.09
2023-05-05T10:00:58.222Z,18.99
2023-05-05T10:03:25.977Z,18.97
2023-05-05T10:05:57.090Z,18.93
2023-05-05T10:08:28.270Z,18.83
2023-05-05T10:11:00.538Z,18.74
2023-05-05T10:13:27.830Z,18.55
2023-05-05T10:15:56.241Z,17.81
2023-05-05T10:18:27.600Z,16.74
2023-05-05T10:21:02.100Z,15.74
2023-05-05T10:23:53.839Z,15.96
2023-05-05T10:26:23.024Z,15.56
2023-05-05T10:28:57.139Z,15.29
2023-05-05T10:31:41.712Z,14.95
2023-05-05T10:34:18.082Z,14.70
2023-05-05T10:36:45.010Z,14.58
2023-05-05T10:39:11.836Z,14.59
2023-05-05T10:41:38.520Z,14.60
2023-05-05T10:44:06.611Z,14.42
2023-05-05T10:46:33.204Z,14.22
2023-05-05T10:49:17.270Z,14.08
2023-05-05T10:51:49.502Z,14.10
2023-05-05T10:54:38.181Z,14.16
2023-05-05T10:57:09.671Z,14.01
2023-05-05T10:59:39.104Z,13.98
2023-05-05T11:02:28.023Z,14.09
2023-05-05T11:05:23.169Z,14.03
2023-05-05T11:07:51.534Z,13.97
2023-05-05T11:10:23.556Z,14.00
2023-05-05T11:12:57.693Z,14.02
2023-05-05T11:15:24.019Z,13.91
2023-05-05T11:17:50.751Z,13.99
2023-05-05T11:20:17.342Z,14.10
2023-05-05T11:23:02.325Z,14.17
2023-05-05T11:25:34.850Z,14.22
2023-05-05T11:28:10.554Z,14.22
2023-05-05T11:30:58.377Z,14.15
2023-05-05T11:33:37.585Z,14.12
2023-05-05T11:36:06.940Z,14.14
2023-05-05T11:39:08.272Z,14.15
2023-05-05T11:41:56.594Z,14.07
2023-05-05T11:44:31.357Z,14.06
2023-05-05T11:46:57.615Z,14.02
2023-05-05T11:49:27.067Z,14.01
2023-05-05T11:51:57.140Z,14.02
2023-05-05T11:54:23.655Z,14.01
2023-05-05T11:56:51.194Z,13.96
2023-05-05T11:59:17.526Z,13.98
2023-05-05T12:01:44.053Z,14.02
2023-05-05T12:04:20.511Z,13.95
2023-05-05T12:06:47.138Z,13.97
2023-05-05T12:09:16.996Z,13.98
2023-05-05T12:11:53.858Z,14.06
2023-05-05T12:14:20.890Z,14.08
2023-05-05T12:17:08.547Z,14.06
2023-05-05T12:19:36.162Z,14.15
2023-05-05T12:22:04.469Z,14.13
2023-05-05T12:24:31.647Z,14.10
2023-05-05T12:27:08.355Z,14.08
2023-05-05T12:29:34.782Z,14.02
2023-05-05T12:32:01.409Z,14.01
2023-05-05T12:34:27.960Z,14.07
2023-05-05T12:36:54.557Z,14.12
2023-05-05T12:39:21.601Z,14.18
2023-05-05T12:41:47.996Z,14.17
2023-05-05T12:44:14.360Z,14.19
2023-05-05T12:46:48.123Z,14.25
2023-05-05T12:49:15.025Z,14.21
2023-05-05T12:51:53.952Z,14.29
2023-05-05T12:54:20.383Z,14.23
2023-05-05T12:56:47.861Z,14.22
2023-05-05T12:59:23.446Z,14.25
2023-05-05T13:01:54.381Z,14.22
2023-05-05T13:04:22.959Z,14.25
2023-05-05T13:06:53.053Z,14.30
2023-05-05T13:09:30.327Z,14.41
2023-05-05T13:11:56.802Z,14.39
2023-05-05T13:14:23.562Z,14.43
2023-05-05T13:16:50.013Z,14.36
2023-05-05T13:19:16.593Z,14.27
2023-05-05T13:21:43.024Z,14.27
2023-05-05T13:24:23.411Z,14.30
2023-05-05T13:26:55.733Z,14.32
2023-05-05T13:29:23.604Z,14.35
2023-05-05T13:31:52.644Z,14.26
2023-05-05T13:34:19.033Z,14.25
2023-05-05T13:36:45.836Z,14.28
2023-05-05T13:39:12.577Z,14.22
2023-05-05T13:41:39.027Z,14.11
2023-05-05T13:44:05.400Z,14.14
2023-05-05T13:46:31.816Z,14.01
2023-05-05T13:48:58.302Z,14.00
2023-05-05T13:51:24.790Z,13.96
2023-05-05T13:53:51.456Z,13.98
2023-05-05T13:56:19.048Z,13.93
2023-05-05T13:58:46.269Z,13.95
2023-05-05T14:01:12.750Z,13.90
2023-05-05T14:03:39.664Z,13.85
2023-05-05T14:06:07.437Z,13.87
2023-05-05T14:08:34.162Z,13.85
2023-05-05T14:11:00.555Z,13.83
2023-05-05T14:13:26.928Z,13.83
2023-05-05T14:15:53.801Z,13.81
2023-05-05T14:18:20.721Z,13.79
2023-05-05T14:20:47.141Z,13.84
2023-05-05T14:23:13.467Z,13.86
2023-05-05T14:25:39.888Z,13.96
2023-05-05T14:28:07.077Z,13.94
2023-05-05T14:30:33.422Z,13.91
2023-05-05T14:33:01.093Z,13.93
2023-05-05T14:35:27.565Z,13.96
2023-05-05T14:37:53.905Z,13.95
2023-05-05T14:40:20.315Z,14.03
2023-05-05T14:42:46.711Z,14.10
2023-05-05T14:45:13.116Z,14.26
2023-05-05T14:47:39.559Z,14.49
2023-05-05T14:50:09.526Z,14.87
2023-05-05T14:52:40.356Z,15.43
2023-05-05T14:55:07.604Z,15.71
2023-05-05T14:57:34.425Z,15.89
2023-05-05T15:00:00.771Z,15.78
2023-05-05T15:02:27.208Z,15.68
2023-05-05T15:04:53.630Z,15.63
2023-05-05T15:07:20.472Z,15.51
2023-05-05T15:09:46.966Z,15.40
2023-05-05T15:12:13.417Z,15.26
2023-05-05T15:14:39.937Z,15.15
2023-05-05T15:17:06.531Z,15.09
2023-05-05T15:19:32.914Z,15.11
2023-05-05T15:21:59.404Z,15.09
2023-05-05T15:24:26.189Z,15.22
2023-05-05T15:26:52.564Z,15.30
2023-05-05T15:29:18.982Z,15.25
2023-05-05T15:31:45.449Z,15.34
2023-05-05T15:34:11.887Z,15.40
2023-05-05T15:36:38.304Z,15.45
2023-05-05T15:39:04.752Z,15.54
2023-05-05T15:41:33.946Z,15.56
2023-05-05T15:44:00.783Z,15.55
2023-05-05T15:46:27.233Z,15.50
2023-05-05T15:48:53.614Z,15.50
2023-05-05T15:51:20.092Z,15.39
2023-05-05T15:53:47.149Z,15.32
2023-05-05T15:56:13.618Z,15.23
2023-05-05T15:58:40.019Z,15.20
2023-05-05T16:01:06.528Z,15.22
2023-05-05T16:03:33.042Z,15.25
2023-05-05T16:05:59.583Z,15.29
2023-05-05T16:08:25.984Z,15.36
2023-05-05T16:10:52.625Z,15.33
2023-05-05T16:13:19.306Z,15.54
2023-05-05T16:15:46.282Z,15.62
2023-05-05T16:18:12.657Z,15.58
2023-05-05T16:20:39.124Z,15.51
2023-05-05T16:23:05.606Z,15.58
2023-05-05T16:25:32.042Z,15.57
2023-05-05T16:28:00.167Z,15.57
2023-05-05T16:30:26.831Z,15.63
2023-05-05T16:32:54.361Z,15.76
2023-05-05T16:35:22.752Z,15.89
2023-05-05T16:37:49.137Z,15.95
2023-05-05T16:40:15.845Z,15.92
2023-05-05T16:42:44.358Z,15.95
2023-05-05T16:45:11.564Z,15.95
2023-05-05T16:47:38.193Z,15.87
2023-05-05T16:50:05.344Z,15.86
2023-05-05T16:52:31.741Z,15.89
2023-05-05T16:54:58.147Z,15.92
2023-05-05T16:57:24.605Z,15.91
2023-05-05T16:59:50.996Z,15.90
2023-05-05T17:02:17.412Z,15.89
2023-05-05T17:04:43.949Z,15.85
2023-05-05T17:07:13.170Z,15.87
2023-05-05T17:09:39.528Z,15.94
2023-05-05T17:12:06.269Z,15.94
2023-05-05T17:14:33.549Z,15.95
2023-05-05T17:16:59.980Z,15.88
2023-05-05T17:19:26.768Z,15.76
2023-05-05T17:21:54.190Z,15.75
2023-05-05T17:24:20.900Z,15.72
2023-05-05T17:26:47.570Z,15.66
2023-05-05T17:29:15.177Z,15.69
2023-05-05T17:31:41.967Z,15.58
2023-05-05T17:34:08.706Z,15.56
2023-05-05T17:36:37.969Z,15.50
2023-05-05T17:39:05.852Z,15.48
2023-05-05T17:41:32.219Z,15.44
2023-05-05T17:43:59.434Z,15.44
2023-05-05T17:46:26.044Z,15.46
2023-05-05T17:48:53.074Z,15.42
2023-05-05T17:51:19.863Z,15.42
2023-05-05T17:53:46.281Z,15.37
2023-05-05T17:56:12.633Z,15.32
2023-05-05T17:58:39.692Z,15.28
2023-05-05T18:01:06.234Z,15.22
2023-05-05T18:03:32.875Z,15.19
2023-05-05T18:05:59.380Z,15.19
2023-05-05T18:08:25.709Z,15.16
2023-05-05T18:10:53.519Z,15.15
2023-05-05T18:13:21.363Z,15.09
2023-05-05T18:15:47.947Z,15.05
2023-05-05T18:18:14.374Z,15.00
2023-05-05T18:20:40.926Z,14.99
2023-05-05T18:23:07.263Z,14.93
2023-05-05T18:25:33.679Z,14.85
2023-05-05T18:28:00.132Z,14.83
2023-05-05T18:30:26.560Z,14.81
2023-05-05T18:32:53.010Z,14.77
2023-05-05T18:35:19.511Z,14.76
2023-05-05T18:37:45.858Z,14.71
2023-05-05T18:40:12.590Z,14.59
2023-05-05T18:42:39.070Z,14.45
2023-05-05T18:45:06.512Z,14.38
2023-05-05T18:47:33.757Z,14.40
2023-05-05T18:50:00.192Z,14.29
2023-05-05T18:52:27.379Z,14.21
2023-05-05T18:54:53.799Z,14.13
2023-05-05T18:57:20.178Z,14.10
2023-05-05T18:59:46.654Z,14.01
2023-05-05T19:02:13.114Z,13.95
2023-05-05T19:04:41.236Z,13.90
2023-05-05T19:07:07.718Z,13.79
2023-05-05T19:09:34.176Z,13.76
2023-05-05T19:12:02.279Z,13.66
2023-05-05T19:14:29.079Z,13.59
2023-05-05T19:16:56.044Z,13.51
2023-05-05T19:19:22.636Z,13.48
2023-05-05T19:21:48.993Z,13.46
2023-05-05T19:24:15.351Z,13.38
2023-05-05T19:26:42.003Z,13.32
2023-05-05T19:29:08.351Z,13.27
2023-05-05T19:31:34.768Z,13.24
2023-05-05T19:34:03.402Z,13.19
2023-05-05T19:36:34.106Z,13.15
2023-05-05T19:39:01.880Z,13.14
2023-05-05T19:41:29.536Z,13.11
2023-05-05T19:43:56.008Z,13.08
2023-05-05T19:46:26.286Z,13.00
2023-05-05T19:48:52.725Z,12.97
2023-05-05T19:51:19.143Z,12.94
2023-05-05T19:53:45.775Z,12.89
2023-05-05T19:56:12.123Z,12.82
2023-05-05T19:58:59.179Z,12.79
2023-05-05T20:01:26.248Z,12.70
2023-05-05T20:03:54.311Z,12.63
2023-05-05T20:06:21.550Z,12.58
2023-05-05T20:08:47.982Z,12.50
2023-05-05T20:11:16.055Z,12.48
2023-05-05T20:13:43.047Z,12.43
2023-05-05T20:16:09.821Z,12.42
2023-05-05T20:18:36.251Z,12.39
2023-05-05T20:21:02.840Z,12.35
2023-05-05T20:23:29.374Z,12.38
2023-05-05T20:25:56.664Z,12.35
2023-05-05T20:28:23.243Z,12.33
2023-05-05T20:30:49.645Z,12.29
2023-05-05T20:33:16.097Z,12.27
2023-05-05T20:35:42.429Z,12.24
2023-05-05T20:38:09.671Z,12.23
2023-05-05T20:40:36.827Z,12.19
2023-05-05T20:43:03.274Z,12.21
2023-05-05T20:45:31.700Z,12.19
2023-05-05T20:47:58.658Z,12.12
2023-05-05T20:50:25.229Z,12.07
2023-05-05T20:52:51.606Z,12.09
2023-05-05T20:55:18.153Z,12.02
2023-05-05T20:57:44.556Z,11.99
2023-05-05T21:00:11.341Z,11.96
2023-05-05T21:02:38.027Z,11.88
2023-05-05T21:05:05.147Z,11.85
2023-05-05T21:07:35.735Z,11.85
2023-05-05T21:10:04.037Z,11.80
2023-05-05T21:12:31.189Z,11.85
2023-05-05T21:14:58.893Z,11.82
2023-05-05T21:17:26.694Z,11.78
2023-05-05T21:19:53.796Z,11.73
2023-05-05T21:22:23.725Z,11.69
2023-05-05T21:24:50.185Z,11.66
2023-05-05T21:27:16.734Z,11.64
2023-05-05T21:29:43.174Z,11.59
2023-05-05T21:32:11.451Z,11.58
2023-05-05T21:34:39.033Z,11.55
2023-05-05T21:37:06.462Z,11.51
2023-05-05T21:39:33.236Z,11.52
2023-05-05T21:42:01.026Z,11.48
2023-05-05T21:44:28.103Z,11.50
2023-05-05T21:46:55.584Z,11.55
2023-05-05T21:49:22.066Z,11.54
2023-05-05T21:51:48.481Z,11.49
2023-05-05T21:54:14.915Z,11.45
2023-05-05T21:56:41.326Z,11.43
2023-05-05T21:59:07.714Z,11.46
2023-05-05T22:01:34.084Z,11.44
2023-05-05T22:04:00.993Z,11.40
2023-05-05T22:06:27.641Z,11.40
2023-05-05T22:08:54.061Z,11.36
2023-05-05T22:11:20.467Z,11.30
2023-05-05T22:13:46.869Z,11.30
2023-05-05T22:16:16.387Z,11.29
2023-05-05T22:18:43.295Z,11.26
2023-05-05T22:21:09.741Z,11.28
2023-05-05T22:23:37.138Z,11.23
2023-05-05T22:26:04.769Z,11.17
2023-05-05T22:28:31.217Z,11.14
2023-05-05T22:30:57.622Z,11.14
2023-05-05T22:33:24.436Z,11.15
2023-05-05T22:35:52.029Z,11.14
2023-05-05T22:38:18.507Z,11.12
2023-05-05T22:40:45.380Z,11.13
2023-05-05T22:43:11.844Z,11.19
2023-05-05T22:45:38.301Z,11.17
2023-05-05T22:48:05.069Z,11.17
2023-05-05T22:50:31.506Z,11.18
2023-05-05T22:52:57.910Z,11.17
2023-05-05T22:55:24.856Z,11.19
2023-05-05T22:57:52.543Z,11.16
2023-05-05T23:00:19.462Z,11.15
2023-05-05T23:02:45.876Z,11.16
2023-05-05T23:05:12.743Z,11.17
2023-05-05T23:07:39.360Z,11.18
2023-05-05T23:10:06.312Z,11.17
2023-05-05T23:12:32.817Z,11.17
2023-05-05T23:14:59.234Z,11.20
2023-05-05T23:17:25.773Z,11.20
2023-05-05T23:19:52.187Z,11.21
2023-05-05T23:22:18.519Z,11.20
2023-05-05T23:24:44.866Z,11.18
2023-05-05T23:27:12.420Z,11.17
2023-05-05T23:29:38.824Z,11.25
2023-05-05T23:32:05.721Z,11.24
2023-05-05T23:34:32.189Z,11.23
2023-05-05T23:36:58.601Z,11.21
2023-05-05T23:39:25.062Z,11.15
2023-05-05T23:41:51.438Z,11.13
2023-05-05T23:44:17.821Z,11.13
2023-05-05T23:46:44.235Z,11.09
2023-05-05T23:49:10.617Z,11.14
2023-05-05T23:51:37.008Z,11.23
2023-05-05T23:54:03.456Z,11.24
2023-05-05T23:56:29.786Z,11.25
2023-05-05T23:58:56.234Z,11.27
